ADDS METAR Data INFO
IDs: Format: Raw Decoded Include TAF

Data at: 0919 UTC 17 Oct 2017

KABQ 170852Z 00000KT 10SM CLR 13/M04 A3036 RMK AO2 SLP224 T01281039 58001
KABQ 170752Z 08005KT 10SM FEW230 11/M03 A3036 RMK AO2 SLP232 T01061033
KABQ 170652Z 14005KT 10SM FEW240 12/M04 A3036 RMK AO2 SLP231 T01171039 402170056
KABQ 170552Z 00000KT 10SM CLR 14/M04 A3036 RMK AO2 SLP232 T01391044 10211 20128 50003
KABQ 170452Z 13005KT 10SM CLR 13/M06 A3037 RMK AO2 SLP240 T01331056
KABQ 170352Z 10007KT 10SM CLR 13/M05 A3036 RMK AO2 SLP240 T01331050
KABQ 170252Z 11003KT 10SM CLR 14/M06 A3035 RMK AO2 SLP241 T01441056 53005
KABQ 170152Z 12005KT 10SM CLR 16/M03 A3035 RMK AO2 SLP242 T01561033
KABQ 170052Z 22005KT 10SM FEW250 19/M03 A3033 RMK AO2 SLP230 T01941033
KABQ 162352Z 21004KT 10SM CLR 21/M05 A3034 RMK AO2 SLP226 T02111050 10217 20156 56012
KABQ 162252Z VRB04KT 10SM CLR 22/M06 A3035 RMK AO2 SLP229 T02171061
KABQ 162152Z 22005KT 10SM CLR 21/M06 A3036 RMK AO2 SLP234 T02111056
KABQ 162052Z 23008KT 10SM CLR 21/M04 A3038 RMK AO2 SLP239 T02061044 57032
KABQ 161952Z 00000KT 10SM CLR 19/M04 A3041 RMK AO2 SLP250 T01941044
KABQ 161852Z 24005KT 10SM CLR 18/M03 A3046 RMK AO2 SLP268 T01781033
KABQ 161752Z 24003KT 10SM CLR 16/M03 A3049 RMK AO2 SLP282 T01561033 10156 20056 58005
KABQ 161652Z 00000KT 10SM CLR 13/M04 A3051 RMK AO2 SLP292 T01281044
KABQ 161552Z 33004KT 10SM CLR 11/M04 A3052 RMK AO2 SLP296 T01061039
KABQ 161452Z 34004KT 10SM FEW250 08/M03 A3050 RMK AO2 SLP299 T00831033
KABQ 161352Z 01008KT 10SM FEW200 06/M04 A3049 RMK AO2 SLP290 T00611039
KABQ 161252Z 01006KT 10SM CLR 06/M03 A3048 RMK AO2 SLP288 T00561033
KABQ 161152Z 36006KT 10SM FEW040 FEW150 06/M03 A3048 RMK AO2 SLP286 FU FEW150 MTNS OBSC SE T00611033 10111 20061 53003
KABQ 161052Z 01007KT 10SM FEW040 07/M03 A3047 RMK AO2 SLP280 MTNS OBSC SE T00671033 $
KABQ 160952Z 36008KT 10SM CLR 07/M03 A3047 RMK AO2 SLP278 T00721033 $
KABQ 160852Z 02009KT 10SM CLR 08/M03 A3047 RMK AO2 SLP280 T00831028 50000 $
KABQ 160752Z 01005KT 10SM CLR 09/M03 A3048 RMK AO2 SLP278 T00941033 $
KABQ 160652Z 32004KT 10SM CLR 09/M02 A3048 RMK AO2 SLP281 T00941022 401830061 $
KABQ 160552Z 30003KT 10SM CLR 11/M02 A3047 RMK AO2 SLP282 T01061017 10178 20106 51004 $
KABQ 160452Z 00000KT 10SM CLR 12/M03 A3047 RMK AO2 SLP282 T01221033 $
KABQ 160352Z 06004KT 10SM CLR 13/M03 A3047 RMK AO2 SLP282 T01331033 $
KABQ 160252Z 08004KT 10SM CLR 12/M04 A3046 RMK AO2 SLP284 T01221044 53008 $
KABQ 160152Z 00000KT 10SM CLR 16/M06 A3045 RMK AO2 SLP277 T01611056 $
KABQ 160052Z 00000KT 10SM CLR 17/M06 A3044 RMK AO2 SLP269 T01671061 $
KABQ 152352Z 21004KT 10SM CLR 18/M06 A3043 RMK AO2 SLP263 T01781061 10183 20133 56007 $
KABQ 152252Z COR 00000KT 10SM CLR 18/M06 A3044 RMK AO2 SLP261 T01781056 $
KABQ 152152Z VRB04KT 10SM CLR 18/M06 A3044 RMK AO2 SLP262 T01831061 $